createdAt,value
2018-06-13T00:00:01.315Z,64.89
2018-06-13T00:01:01.784Z,64.88
2018-06-13T00:02:02.277Z,64.88
2018-06-13T00:03:02.730Z,64.85
2018-06-13T00:04:03.198Z,64.96
2018-06-13T00:05:03.672Z,64.96
2018-06-13T00:06:04.149Z,64.93
2018-06-13T00:07:04.618Z,64.98
2018-06-13T00:08:05.092Z,65.04
2018-06-13T00:09:05.567Z,65.09
2018-06-13T00:10:06.040Z,65.12
2018-06-13T00:11:06.511Z,65.09
2018-06-13T00:12:06.986Z,65.00
2018-06-13T00:13:07.457Z,65.11
2018-06-13T00:14:07.929Z,65.14
2018-06-13T00:15:08.406Z,65.16
2018-06-13T00:16:08.874Z,65.19
2018-06-13T00:17:09.345Z,65.24
2018-06-13T00:18:09.816Z,65.27
2018-06-13T00:19:10.287Z,65.35
2018-06-13T00:20:10.762Z,65.32
2018-06-13T00:21:11.231Z,65.26
2018-06-13T00:22:11.702Z,65.29
2018-06-13T00:23:12.173Z,65.37
2018-06-13T00:24:12.643Z,65.47
2018-06-13T00:25:13.115Z,65.47
2018-06-13T00:26:13.588Z,65.50
2018-06-13T00:27:14.056Z,65.53
2018-06-13T00:28:14.526Z,65.61
2018-06-13T00:29:15.000Z,65.57
2018-06-13T00:30:15.470Z,65.55
2018-06-13T00:31:15.942Z,65.55
2018-06-13T00:32:16.413Z,65.51
2018-06-13T00:33:16.886Z,65.49
2018-06-13T00:34:17.355Z,65.43
2018-06-13T00:35:17.827Z,65.57
2018-06-13T00:36:18.297Z,65.56
2018-06-13T00:37:18.770Z,65.64
2018-06-13T00:38:19.241Z,65.67
2018-06-13T00:39:19.711Z,65.56
2018-06-13T00:40:20.188Z,65.64
2018-06-13T00:41:20.659Z,65.77
2018-06-13T00:42:21.129Z,65.77
2018-06-13T00:43:21.601Z,65.69
2018-06-13T00:44:22.078Z,65.66
2018-06-13T00:45:22.548Z,65.77
2018-06-13T00:46:23.074Z,65.68
2018-06-13T00:47:23.492Z,65.66
2018-06-13T00:48:23.963Z,65.76
2018-06-13T00:49:24.438Z,65.73
2018-06-13T00:50:24.915Z,65.76
2018-06-13T00:51:25.382Z,65.79
2018-06-13T00:52:25.858Z,65.70
2018-06-13T00:53:26.340Z,65.78
2018-06-13T00:54:26.808Z,65.70
2018-06-13T00:55:27.278Z,65.75
2018-06-13T00:56:27.753Z,65.70
2018-06-13T00:57:28.228Z,65.78
2018-06-13T00:58:28.701Z,65.78
2018-06-13T00:59:29.176Z,65.75
2018-06-13T01:00:29.651Z,65.80
2018-06-13T01:01:30.127Z,65.86
2018-06-13T01:02:30.601Z,65.86
2018-06-13T01:03:31.076Z,65.94
2018-06-13T01:04:31.551Z,66.02
2018-06-13T01:05:32.024Z,65.91
2018-06-13T01:06:32.499Z,65.77
2018-06-13T01:07:32.974Z,65.85
2018-06-13T01:08:33.448Z,65.82
2018-06-13T01:09:33.923Z,65.90
2018-06-13T01:10:34.397Z,65.95
2018-06-13T01:11:34.871Z,66.04
2018-06-13T01:12:35.344Z,66.25
2018-06-13T01:13:35.818Z,66.25
2018-06-13T01:14:36.293Z,66.11
2018-06-13T01:15:36.765Z,66.22
2018-06-13T01:16:37.243Z,66.25
2018-06-13T01:17:37.712Z,65.97
2018-06-13T01:18:38.186Z,66.11
2018-06-13T01:19:38.659Z,66.14
2018-06-13T01:20:39.134Z,66.19
2018-06-13T01:21:39.610Z,66.21
2018-06-13T01:22:40.077Z,66.21
2018-06-13T01:23:40.548Z,66.29
2018-06-13T01:24:41.020Z,66.43
2018-06-13T01:25:41.491Z,66.54
2018-06-13T01:26:41.964Z,66.45
2018-06-13T01:27:42.434Z,66.42
2018-06-13T01:28:42.906Z,66.43
2018-06-13T01:29:43.382Z,66.51
2018-06-13T01:30:43.854Z,66.42
2018-06-13T01:31:44.323Z,66.50
2018-06-13T01:32:44.790Z,66.47
2018-06-13T01:33:45.262Z,66.50
2018-06-13T01:34:45.734Z,66.31
2018-06-13T01:35:46.205Z,66.55
2018-06-13T01:36:46.675Z,66.58
2018-06-13T01:37:47.146Z,66.63
2018-06-13T01:38:47.616Z,66.47
2018-06-13T01:39:48.088Z,66.60
2018-06-13T01:40:48.559Z,66.63
2018-06-13T01:41:49.029Z,66.62
2018-06-13T01:42:49.501Z,66.59
2018-06-13T01:43:49.973Z,66.68
2018-06-13T01:44:50.446Z,66.73
2018-06-13T01:45:50.914Z,66.78
2018-06-13T01:46:51.388Z,66.70
2018-06-13T01:47:51.857Z,66.81
2018-06-13T01:48:52.329Z,66.53
2018-06-13T01:49:52.801Z,66.51
2018-06-13T01:50:53.276Z,66.45
2018-06-13T01:51:53.744Z,66.47
2018-06-13T01:52:54.219Z,66.45
2018-06-13T01:53:54.690Z,66.61
2018-06-13T01:54:55.163Z,66.80
2018-06-13T01:55:55.637Z,66.55
2018-06-13T01:56:56.108Z,66.66
2018-06-13T01:57:56.580Z,66.77
2018-06-13T01:58:57.058Z,66.82
2018-06-13T01:59:57.527Z,66.82
2018-06-13T02:00:58.002Z,66.90
2018-06-13T02:01:58.472Z,66.74
2018-06-13T02:02:58.947Z,66.74
2018-06-13T02:03:59.420Z,66.90
2018-06-13T02:04:59.894Z,66.92
2018-06-13T02:06:00.369Z,66.90
2018-06-13T02:07:00.842Z,66.67
2018-06-13T02:08:01.317Z,66.65
2018-06-13T02:09:01.792Z,66.70
2018-06-13T02:10:02.269Z,66.59
2018-06-13T02:11:02.741Z,66.73
2018-06-13T02:12:03.215Z,66.73
2018-06-13T02:13:03.691Z,66.91
2018-06-13T02:14:04.165Z,66.97
2018-06-13T02:15:04.639Z,67.05
2018-06-13T02:16:05.113Z,67.05
2018-06-13T02:17:05.588Z,67.02
2018-06-13T02:18:06.063Z,66.93
2018-06-13T02:19:06.537Z,66.93
2018-06-13T02:20:07.012Z,66.96
2018-06-13T02:21:07.485Z,67.04
2018-06-13T02:22:07.960Z,66.96
2018-06-13T02:23:08.434Z,67.04
2018-06-13T02:24:08.909Z,67.06
2018-06-13T02:25:09.380Z,67.09
2018-06-13T02:26:09.857Z,67.12
2018-06-13T02:27:10.329Z,66.95
2018-06-13T02:28:10.800Z,66.92
2018-06-13T02:29:11.274Z,66.92
2018-06-13T02:30:11.747Z,66.84
2018-06-13T02:31:12.227Z,66.89
2018-06-13T02:32:12.692Z,66.84
2018-06-13T02:33:13.165Z,66.78
2018-06-13T02:34:13.636Z,66.67
2018-06-13T02:35:14.111Z,66.64
2018-06-13T02:36:14.583Z,66.58
2018-06-13T02:37:15.051Z,66.50
2018-06-13T02:38:15.522Z,66.42
2018-06-13T02:39:15.993Z,66.36
2018-06-13T02:40:16.472Z,66.30
2018-06-13T02:41:16.935Z,66.25
2018-06-13T02:42:17.406Z,66.24
2018-06-13T02:43:17.877Z,66.18
2018-06-13T02:44:18.347Z,66.15
2018-06-13T02:45:18.822Z,66.23
2018-06-13T02:46:19.289Z,66.20
2018-06-13T02:47:19.762Z,66.25
2018-06-13T02:48:20.235Z,66.28
2018-06-13T02:49:20.704Z,66.33
2018-06-13T02:50:21.172Z,66.30
2018-06-13T02:51:21.643Z,66.35
2018-06-13T02:52:22.114Z,66.40
2018-06-13T02:53:22.584Z,66.35
2018-06-13T02:54:23.057Z,66.37
2018-06-13T02:55:23.527Z,66.45
2018-06-13T02:56:23.998Z,66.64
2018-06-13T02:57:24.470Z,66.50
2018-06-13T02:58:24.941Z,66.50
2018-06-13T02:59:25.412Z,66.61
2018-06-13T03:00:25.884Z,66.69
2018-06-13T03:01:26.361Z,66.76
2018-06-13T03:02:26.828Z,66.74
2018-06-13T03:03:27.323Z,66.76
2018-06-13T03:04:27.770Z,66.71
2018-06-13T03:05:28.243Z,66.79
2018-06-13T03:06:28.714Z,66.70
2018-06-13T03:07:29.190Z,66.78
2018-06-13T03:08:29.661Z,66.72
2018-06-13T03:09:30.133Z,66.78
2018-06-13T03:10:30.608Z,66.80
2018-06-13T03:11:31.081Z,66.94
2018-06-13T03:12:31.551Z,67.04
2018-06-13T03:13:32.026Z,66.99
2018-06-13T03:14:32.498Z,67.04
2018-06-13T03:15:32.974Z,67.31
2018-06-13T03:16:33.445Z,67.25
2018-06-13T03:17:33.919Z,67.39
2018-06-13T03:18:34.394Z,67.31
2018-06-13T03:19:34.870Z,67.41
2018-06-13T03:20:35.342Z,67.44
2018-06-13T03:21:35.815Z,67.35
2018-06-13T03:22:36.290Z,67.22
2018-06-13T03:23:36.764Z,67.33
2018-06-13T03:24:37.238Z,67.38
2018-06-13T03:25:37.713Z,67.46
2018-06-13T03:26:38.192Z,67.43
2018-06-13T03:27:38.661Z,67.51
2018-06-13T03:28:39.137Z,67.48
2018-06-13T03:29:39.611Z,67.45
2018-06-13T03:30:40.085Z,67.45
2018-06-13T03:31:40.561Z,67.34
2018-06-13T03:32:41.033Z,67.42
2018-06-13T03:33:41.512Z,67.37
2018-06-13T03:34:41.982Z,67.37
2018-06-13T03:35:42.456Z,67.26
2018-06-13T03:36:42.930Z,67.31
2018-06-13T03:37:43.406Z,67.23
2018-06-13T03:38:43.878Z,67.04
2018-06-13T03:39:44.350Z,67.04
2018-06-13T03:40:44.825Z,67.20
2018-06-13T03:41:45.296Z,67.22
2018-06-13T03:42:45.769Z,67.20
2018-06-13T03:43:46.241Z,67.03
2018-06-13T03:44:46.713Z,67.06
2018-06-13T03:45:47.185Z,67.19
2018-06-13T03:46:47.657Z,67.30
2018-06-13T03:47:48.131Z,67.33
2018-06-13T03:48:48.601Z,67.14
2018-06-13T03:49:49.073Z,67.32
2018-06-13T03:50:49.543Z,67.32
2018-06-13T03:51:50.015Z,67.18
2018-06-13T03:52:50.488Z,67.38
2018-06-13T03:53:50.959Z,67.32
2018-06-13T03:54:51.426Z,67.43
2018-06-13T03:55:51.897Z,67.50
2018-06-13T03:56:52.367Z,67.45
2018-06-13T03:57:52.838Z,67.48
2018-06-13T03:58:53.308Z,67.53
2018-06-13T03:59:53.780Z,67.58
2018-06-13T04:00:54.249Z,67.66
2018-06-13T04:01:54.721Z,67.61
2018-06-13T04:02:55.192Z,67.74
2018-06-13T04:03:55.663Z,67.71
2018-06-13T04:04:56.134Z,67.92
2018-06-13T04:05:56.604Z,67.84
2018-06-13T04:06:57.078Z,67.81
2018-06-13T04:07:57.548Z,67.81
2018-06-13T04:08:58.019Z,67.68
2018-06-13T04:09:58.488Z,67.79
2018-06-13T04:10:58.958Z,67.62
2018-06-13T04:11:59.431Z,67.73
2018-06-13T04:12:59.902Z,67.65
2018-06-13T04:14:00.372Z,67.97
2018-06-13T04:15:00.845Z,67.97
2018-06-13T04:16:01.316Z,67.76
2018-06-13T04:17:01.788Z,68.02
2018-06-13T04:18:02.262Z,68.24
2018-06-13T04:19:02.733Z,68.23
2018-06-13T04:20:03.207Z,68.15
2018-06-13T04:21:03.676Z,68.21
2018-06-13T04:22:04.149Z,68.26
2018-06-13T04:23:04.622Z,68.33
2018-06-13T04:24:05.099Z,68.44
2018-06-13T04:25:05.567Z,68.55
2018-06-13T04:26:06.042Z,68.41
2018-06-13T04:27:06.514Z,68.54
2018-06-13T04:28:06.987Z,68.55
2018-06-13T04:29:07.462Z,68.54
2018-06-13T04:30:07.935Z,68.46
2018-06-13T04:31:08.408Z,68.54
2018-06-13T04:32:08.880Z,68.49
2018-06-13T04:33:09.355Z,68.46
2018-06-13T04:35:10.302Z,68.49
2018-06-13T04:36:10.781Z,68.59
2018-06-13T04:37:11.251Z,68.54
2018-06-13T04:38:11.724Z,68.54
2018-06-13T04:39:12.204Z,68.51
2018-06-13T04:40:12.674Z,68.56
2018-06-13T04:41:13.146Z,68.51
2018-06-13T04:42:13.624Z,68.56
2018-06-13T04:43:14.096Z,68.48
2018-06-13T04:44:14.572Z,68.81
2018-06-13T04:45:15.047Z,68.64
2018-06-13T04:46:15.520Z,68.57
2018-06-13T04:47:15.993Z,68.49
2018-06-13T04:48:16.469Z,68.54
2018-06-13T04:49:16.943Z,68.59
2018-06-13T04:50:17.414Z,68.46
2018-06-13T04:51:17.889Z,68.40
2018-06-13T04:52:18.363Z,68.59
2018-06-13T04:53:18.835Z,68.64
2018-06-13T04:54:19.309Z,68.51
2018-06-13T04:55:19.782Z,68.43
2018-06-13T04:56:20.255Z,68.35
2018-06-13T04:57:20.730Z,68.59
2018-06-13T04:58:21.247Z,68.51
2018-06-13T04:59:21.674Z,68.62
2018-06-13T05:00:22.144Z,68.67
2018-06-13T05:01:22.615Z,68.70
2018-06-13T05:02:23.088Z,68.51
2018-06-13T05:03:23.559Z,68.75
2018-06-13T05:04:24.031Z,68.75
2018-06-13T05:05:24.500Z,68.77
2018-06-13T05:06:24.972Z,68.80
2018-06-13T05:07:25.446Z,68.85
2018-06-13T05:08:25.915Z,68.91
2018-06-13T05:09:26.386Z,69.06
2018-06-13T05:10:26.858Z,69.14
2018-06-13T05:11:27.333Z,68.90
2018-06-13T05:12:27.803Z,68.82
2018-06-13T05:13:28.268Z,68.82
2018-06-13T05:14:28.740Z,68.93
2018-06-13T05:15:29.211Z,68.98
2018-06-13T05:16:29.682Z,69.03
2018-06-13T05:17:30.151Z,69.04
2018-06-13T05:18:30.623Z,68.87
2018-06-13T05:19:31.094Z,69.09
2018-06-13T05:20:31.565Z,69.30
2018-06-13T05:21:32.034Z,69.11
2018-06-13T05:22:32.509Z,69.35
2018-06-13T05:23:32.977Z,69.56
2018-06-13T05:24:33.449Z,69.48
2018-06-13T05:25:33.920Z,69.40
2018-06-13T05:26:34.395Z,69.48
2018-06-13T05:27:34.866Z,69.61
2018-06-13T05:28:35.342Z,69.48
2018-06-13T05:29:35.807Z,69.53
2018-06-13T05:30:36.281Z,69.59
2018-06-13T05:31:36.751Z,69.48
2018-06-13T05:32:37.223Z,69.37
2018-06-13T05:33:37.698Z,69.43
2018-06-13T05:34:38.168Z,69.45
2018-06-13T05:35:38.643Z,69.37
2018-06-13T05:36:39.118Z,69.40
2018-06-13T05:37:39.588Z,69.29
2018-06-13T05:38:40.060Z,69.24
2018-06-13T05:39:40.533Z,69.48
2018-06-13T05:40:41.006Z,69.64
2018-06-13T05:41:41.479Z,69.67
2018-06-13T05:42:41.955Z,69.77
2018-06-13T05:43:42.429Z,69.74
2018-06-13T05:44:42.904Z,69.80
2018-06-13T05:45:43.374Z,69.71
2018-06-13T05:46:43.847Z,69.64
2018-06-13T05:47:44.322Z,69.77
2018-06-13T05:48:44.797Z,69.71
2018-06-13T05:49:45.269Z,69.79
2018-06-13T05:50:45.745Z,69.61
2018-06-13T05:51:46.216Z,69.56
2018-06-13T05:52:46.696Z,69.59
2018-06-13T05:53:47.168Z,69.69
2018-06-13T05:54:47.641Z,69.59
2018-06-13T05:55:48.116Z,69.53
2018-06-13T05:56:48.593Z,69.42
2018-06-13T05:57:49.065Z,69.43
2018-06-13T05:58:49.539Z,69.50
2018-06-13T05:59:50.016Z,69.74
2018-06-13T06:00:50.490Z,69.66
2018-06-13T06:01:50.963Z,69.61
2018-06-13T06:02:51.438Z,69.61
2018-06-13T06:03:51.912Z,69.66
2018-06-13T06:04:52.384Z,69.56
2018-06-13T06:05:52.880Z,69.61
2018-06-13T06:06:53.336Z,69.67
2018-06-13T06:07:53.805Z,69.61
2018-06-13T06:08:54.281Z,69.50
2018-06-13T06:09:54.751Z,69.58
2018-06-13T06:10:55.222Z,69.85
2018-06-13T06:11:55.695Z,69.85
2018-06-13T06:12:56.171Z,70.22
2018-06-13T06:13:56.640Z,70.29
2018-06-13T06:14:57.162Z,70.27
2018-06-13T06:15:57.587Z,70.38
2018-06-13T06:16:58.056Z,70.32
2018-06-13T06:17:58.529Z,70.27
2018-06-13T06:18:58.998Z,70.26
2018-06-13T06:19:59.470Z,70.34
2018-06-13T06:20:59.941Z,70.26
2018-06-13T06:22:00.411Z,70.21
2018-06-13T06:23:00.882Z,70.37
2018-06-13T06:24:01.354Z,70.42
2018-06-13T06:25:01.879Z,70.52
2018-06-13T06:26:02.296Z,70.39
2018-06-13T06:27:02.766Z,70.39
2018-06-13T06:28:03.238Z,70.50
2018-06-13T06:29:03.707Z,70.42
2018-06-13T06:30:04.178Z,70.31
2018-06-13T06:31:04.653Z,70.44
2018-06-13T06:32:05.127Z,70.55
2018-06-13T06:33:05.590Z,70.57
2018-06-13T06:34:06.060Z,70.62
2018-06-13T06:35:06.534Z,70.57
2018-06-13T06:36:07.006Z,70.57
2018-06-13T06:37:07.474Z,70.54
2018-06-13T06:38:07.947Z,70.54
2018-06-13T06:39:08.418Z,70.53
2018-06-13T06:40:08.887Z,70.51
2018-06-13T06:41:09.360Z,70.51
2018-06-13T06:42:09.865Z,70.43
2018-06-13T06:43:10.303Z,70.45
2018-06-13T06:44:10.776Z,70.40
2018-06-13T06:45:11.247Z,70.34
2018-06-13T06:46:11.718Z,70.39
2018-06-13T06:47:12.191Z,70.42
2018-06-13T06:48:12.663Z,70.41
2018-06-13T06:49:13.134Z,70.41
2018-06-13T06:50:13.609Z,70.48
2018-06-13T06:51:14.080Z,70.51
2018-06-13T06:52:14.552Z,70.58
2018-06-13T06:53:15.027Z,70.63
2018-06-13T06:54:15.499Z,70.68
2018-06-13T06:55:16.030Z,70.73
2018-06-13T06:56:16.445Z,70.83
2018-06-13T06:57:16.918Z,70.88
2018-06-13T06:58:17.390Z,70.98
2018-06-13T06:59:17.864Z,71.03
2018-06-13T07:00:18.544Z,71.06
2018-06-13T07:01:19.014Z,71.10
2018-06-13T07:02:19.286Z,71.13
2018-06-13T07:03:19.767Z,70.94
2018-06-13T07:04:20.246Z,70.92
2018-06-13T07:05:20.706Z,71.07
2018-06-13T07:06:21.181Z,71.18
2018-06-13T07:07:21.655Z,71.10
2018-06-13T07:08:22.128Z,71.05
2018-06-13T07:09:22.608Z,71.18
2018-06-13T07:10:23.079Z,71.08
2018-06-13T07:11:23.551Z,71.02
2018-06-13T07:12:24.026Z,71.07
2018-06-13T07:13:24.502Z,71.05
2018-06-13T07:14:24.973Z,70.89
2018-06-13T07:15:25.447Z,70.92
2018-06-13T07:16:25.927Z,70.92
2018-06-13T07:17:26.399Z,70.79
2018-06-13T07:18:26.870Z,71.10
2018-06-13T07:19:27.343Z,71.13
2018-06-13T07:20:27.821Z,71.13
2018-06-13T07:21:28.291Z,71.29
2018-06-13T07:22:28.766Z,71.32
2018-06-13T07:23:29.236Z,71.42
2018-06-13T07:24:29.711Z,71.32
2018-06-13T07:25:30.184Z,71.45
2018-06-13T07:26:30.655Z,71.56
2018-06-13T07:27:31.129Z,71.53
2018-06-13T07:28:31.602Z,71.51
2018-06-13T07:29:32.073Z,71.61
2018-06-13T07:30:32.543Z,71.56
2018-06-13T07:31:33.016Z,71.51
2018-06-13T07:32:33.487Z,71.69
2018-06-13T07:33:33.999Z,71.67
2018-06-13T07:34:34.429Z,71.67
2018-06-13T07:35:34.900Z,71.56
2018-06-13T07:36:35.375Z,71.64
2018-06-13T07:37:35.842Z,71.67
2018-06-13T07:38:36.312Z,71.59
2018-06-13T07:39:36.784Z,71.51
2018-06-13T07:40:37.255Z,71.69
2018-06-13T07:41:37.729Z,71.57
2018-06-13T07:42:38.198Z,71.49
2018-06-13T07:43:38.666Z,71.41
2018-06-13T07:44:39.138Z,71.42
2018-06-13T07:45:39.608Z,71.47
2018-06-13T07:46:40.079Z,71.34
2018-06-13T07:47:40.552Z,71.29
2018-06-13T07:48:41.020Z,71.34
2018-06-13T07:49:41.550Z,71.34
2018-06-13T07:50:41.961Z,71.42
2018-06-13T07:51:42.433Z,71.47
2018-06-13T07:52:42.904Z,71.52
2018-06-13T07:53:43.375Z,71.50
2018-06-13T07:54:43.846Z,71.53
2018-06-13T07:55:44.321Z,71.68
2018-06-13T07:56:44.789Z,71.73
2018-06-13T07:57:45.260Z,71.58
2018-06-13T07:58:45.730Z,71.50
2018-06-13T07:59:46.205Z,71.71
2018-06-13T08:00:46.675Z,71.76
2018-06-13T08:01:47.147Z,71.68
2018-06-13T08:02:47.621Z,71.87
2018-06-13T08:03:48.091Z,71.84
2018-06-13T08:04:48.563Z,72.05
2018-06-13T08:05:49.036Z,72.16
2018-06-13T08:06:49.513Z,72.08
2018-06-13T08:07:49.981Z,71.87
2018-06-13T08:08:50.507Z,71.90
2018-06-13T08:09:50.928Z,71.87
2018-06-13T08:10:51.401Z,71.87
2018-06-13T08:11:51.877Z,71.88
2018-06-13T08:12:52.348Z,71.88
2018-06-13T08:13:52.821Z,71.93
2018-06-13T08:14:53.296Z,71.88
2018-06-13T08:15:53.769Z,71.96
2018-06-13T08:16:54.251Z,71.88
2018-06-13T08:17:54.719Z,71.86
2018-06-13T08:18:55.191Z,71.81
2018-06-13T08:19:55.663Z,71.89
2018-06-13T08:20:56.139Z,71.76
2018-06-13T08:21:56.613Z,71.86
2018-06-13T08:22:57.087Z,72.05
2018-06-13T08:23:57.561Z,71.84
2018-06-13T08:24:58.035Z,71.87
2018-06-13T08:25:58.514Z,71.76
2018-06-13T08:26:58.984Z,71.69
2018-06-13T08:27:59.458Z,71.77
2018-06-13T08:28:59.933Z,71.77
2018-06-13T08:30:00.410Z,71.74
2018-06-13T08:31:00.880Z,71.66
2018-06-13T08:32:01.356Z,71.67
2018-06-13T08:33:01.830Z,71.62
2018-06-13T08:34:02.304Z,71.62
2018-06-13T08:35:02.776Z,71.51
2018-06-13T08:36:03.252Z,71.33
2018-06-13T08:37:03.726Z,71.26
2018-06-13T08:38:04.198Z,71.13
2018-06-13T08:39:04.670Z,71.28
2018-06-13T08:40:05.144Z,71.26
2018-06-13T08:41:05.616Z,71.31
2018-06-13T08:42:06.094Z,71.26
2018-06-13T08:43:06.559Z,71.16
2018-06-13T08:44:07.032Z,71.13
2018-06-13T08:45:07.505Z,71.16
2018-06-13T08:46:07.982Z,71.16
2018-06-13T08:47:08.447Z,71.16
2018-06-13T08:48:08.919Z,71.17
2018-06-13T08:49:09.391Z,71.32
2018-06-13T08:50:09.861Z,71.32
2018-06-13T08:51:10.331Z,71.33
2018-06-13T08:52:10.803Z,71.56
2018-06-13T08:53:11.275Z,71.43
2018-06-13T08:54:11.752Z,71.25
2018-06-13T08:55:12.218Z,71.49
2018-06-13T08:56:12.686Z,71.44
2018-06-13T08:57:13.158Z,71.39
2018-06-13T08:58:13.628Z,71.31
2018-06-13T08:59:14.103Z,71.18
2018-06-13T09:00:14.570Z,71.18
2018-06-13T09:01:15.040Z,71.13
2018-06-13T09:02:15.511Z,71.05
2018-06-13T09:03:16.000Z,71.00
2018-06-13T09:04:16.455Z,71.03
2018-06-13T09:05:16.925Z,71.00
2018-06-13T09:06:17.397Z,70.98
2018-06-13T09:07:17.866Z,70.98
2018-06-13T09:08:18.341Z,70.90
2018-06-13T09:09:18.809Z,70.96
2018-06-13T09:10:19.282Z,70.96
2018-06-13T09:11:19.753Z,70.99
2018-06-13T09:12:20.227Z,71.10
2018-06-13T09:13:20.698Z,71.07
2018-06-13T09:14:21.173Z,71.02
2018-06-13T09:15:21.641Z,71.10
2018-06-13T09:16:22.114Z,71.11
2018-06-13T09:17:22.587Z,71.00
2018-06-13T09:18:23.059Z,70.95
2018-06-13T09:19:23.537Z,71.03
2018-06-13T09:20:24.005Z,70.95
2018-06-13T09:21:24.480Z,70.96
2018-06-13T09:23:25.423Z,70.75
2018-06-13T09:24:25.896Z,70.86
2018-06-13T09:25:26.371Z,70.81
2018-06-13T09:26:26.849Z,70.92
2018-06-13T09:27:27.318Z,70.87
2018-06-13T09:28:27.792Z,70.87
2018-06-13T09:29:28.266Z,70.64
2018-06-13T09:30:28.744Z,70.77
2018-06-13T09:31:29.215Z,70.72
2018-06-13T09:32:29.688Z,70.89
2018-06-13T09:33:30.167Z,70.86
2018-06-13T09:34:30.638Z,70.73
2018-06-13T09:35:31.113Z,70.74
2018-06-13T09:36:31.738Z,70.63
2018-06-13T09:37:32.154Z,70.61
2018-06-13T09:38:32.537Z,70.72
2018-06-13T09:39:33.012Z,70.67
2018-06-13T09:40:33.486Z,70.68
2018-06-13T09:41:33.962Z,70.76
2018-06-13T09:42:34.436Z,70.71
2018-06-13T09:43:34.910Z,70.95
2018-06-13T09:44:35.385Z,71.16
2018-06-13T09:45:35.862Z,70.67
2018-06-13T09:46:36.334Z,70.67
2018-06-13T09:47:36.808Z,70.57
2018-06-13T09:48:37.281Z,70.89
2018-06-13T09:49:37.755Z,70.68
2018-06-13T09:50:38.229Z,70.63
2018-06-13T09:51:38.702Z,70.81
2018-06-13T09:52:39.175Z,70.61
2018-06-13T09:53:39.647Z,70.51
2018-06-13T09:54:40.121Z,70.41
2018-06-13T09:55:40.593Z,70.49
2018-06-13T09:56:41.284Z,70.52
2018-06-13T09:57:41.538Z,70.55
2018-06-13T09:58:42.012Z,70.40
2018-06-13T09:59:42.482Z,70.35
2018-06-13T10:00:42.954Z,70.32
2018-06-13T10:01:43.474Z,70.27
2018-06-13T10:02:43.898Z,70.25
2018-06-13T10:03:44.370Z,70.12
2018-06-13T10:04:44.862Z,70.26
2018-06-13T10:05:45.309Z,70.16
2018-06-13T10:06:45.783Z,70.16
2018-06-13T10:07:46.253Z,70.40
2018-06-13T10:08:46.775Z,70.32
2018-06-13T10:09:47.198Z,70.12
2018-06-13T10:10:47.668Z,70.23
2018-06-13T10:11:48.137Z,70.18
2018-06-13T10:12:48.609Z,70.13
2018-06-13T10:13:49.079Z,70.11
2018-06-13T10:14:49.584Z,70.11
2018-06-13T10:15:50.022Z,70.08
2018-06-13T10:16:50.515Z,70.03
2018-06-13T10:17:50.965Z,70.06
2018-06-13T10:18:51.437Z,70.12
2018-06-13T10:19:51.908Z,69.99
2018-06-13T10:20:52.382Z,69.91
2018-06-13T10:21:52.850Z,69.84
2018-06-13T10:23:53.794Z,69.79
2018-06-13T10:24:54.268Z,69.82
2018-06-13T10:25:54.740Z,69.85
2018-06-13T10:26:55.213Z,69.91
2018-06-13T10:27:55.686Z,69.70
2018-06-13T10:28:56.194Z,69.76
2018-06-13T10:29:56.630Z,69.74
2018-06-13T10:30:57.106Z,69.76
2018-06-13T10:31:57.578Z,69.69
2018-06-13T10:32:58.050Z,69.75
2018-06-13T10:33:58.523Z,69.67
2018-06-13T10:34:58.997Z,69.70
2018-06-13T10:35:59.470Z,69.63
2018-06-13T10:37:00.148Z,69.66
2018-06-13T10:38:00.419Z,69.64
2018-06-13T10:39:00.894Z,69.64
2018-06-13T10:40:01.368Z,69.49
2018-06-13T10:41:01.841Z,69.55
2018-06-13T10:42:02.319Z,69.66
2018-06-13T10:43:02.793Z,69.82
2018-06-13T10:44:03.267Z,69.82
2018-06-13T10:45:03.743Z,69.80
2018-06-13T10:46:04.220Z,69.78
2018-06-13T10:47:04.695Z,69.60
2018-06-13T10:48:05.166Z,69.47
2018-06-13T10:49:05.642Z,69.61
2018-06-13T10:50:06.117Z,69.61
2018-06-13T10:51:06.593Z,69.51
2018-06-13T10:52:07.273Z,69.65
2018-06-13T10:53:07.545Z,69.63
2018-06-13T10:54:08.016Z,69.53
2018-06-13T10:55:08.491Z,69.51
2018-06-13T10:56:08.964Z,69.51
2018-06-13T10:57:09.440Z,69.49
2018-06-13T10:58:09.914Z,69.46
2018-06-13T10:59:10.390Z,69.42
2018-06-13T11:00:10.864Z,69.42
2018-06-13T11:01:11.335Z,69.51
2018-06-13T11:02:11.811Z,69.62
2018-06-13T11:03:12.282Z,69.65
2018-06-13T11:04:12.755Z,69.63
2018-06-13T11:05:13.229Z,69.61
2018-06-13T11:06:13.702Z,69.51
2018-06-13T11:07:14.178Z,69.54
2018-06-13T11:08:14.645Z,69.55
2018-06-13T11:09:15.121Z,69.58
2018-06-13T11:10:15.595Z,69.66
2018-06-13T11:11:16.065Z,69.56
2018-06-13T11:12:16.537Z,69.57
2018-06-13T11:13:17.009Z,69.71
2018-06-13T11:14:17.481Z,69.69
2018-06-13T11:15:17.953Z,69.58
2018-06-13T11:16:18.423Z,69.51
2018-06-13T11:17:18.896Z,69.57
2018-06-13T11:18:19.367Z,69.47
2018-06-13T11:19:19.838Z,69.50
2018-06-13T11:20:20.325Z,69.45
2018-06-13T11:21:20.781Z,69.40
2018-06-13T11:22:21.251Z,69.33
2018-06-13T11:23:21.722Z,69.41
2018-06-13T11:24:22.194Z,69.34
2018-06-13T11:25:22.665Z,69.32
2018-06-13T11:26:23.137Z,69.35
2018-06-13T11:27:23.611Z,69.38
2018-06-13T11:28:24.082Z,69.33
2018-06-13T11:29:24.554Z,69.34
2018-06-13T11:30:25.030Z,69.34
2018-06-13T11:31:25.529Z,69.26
2018-06-13T11:32:25.970Z,69.24
2018-06-13T11:33:26.443Z,69.33
2018-06-13T11:34:26.916Z,69.29
2018-06-13T11:35:27.388Z,69.26
2018-06-13T11:36:27.860Z,69.24
2018-06-13T11:37:28.334Z,69.19
2018-06-13T11:39:29.280Z,69.17
2018-06-13T11:40:29.755Z,69.09
2018-06-13T11:41:30.298Z,69.07
2018-06-13T11:42:30.702Z,69.02
2018-06-13T11:43:31.185Z,69.03
2018-06-13T11:44:31.649Z,68.95
2018-06-13T11:45:32.130Z,68.90
2018-06-13T11:46:32.610Z,68.86
2018-06-13T11:47:33.077Z,68.78
2018-06-13T11:48:33.547Z,68.67
2018-06-13T11:49:34.022Z,68.62
2018-06-13T11:50:34.499Z,68.57
2018-06-13T11:51:34.978Z,68.47
2018-06-13T11:52:35.449Z,68.47
2018-06-13T11:53:36.136Z,68.50
2018-06-13T11:54:36.401Z,68.45
2018-06-13T11:55:36.874Z,68.35
2018-06-13T11:56:37.351Z,68.30
2018-06-13T11:57:37.825Z,68.28
2018-06-13T11:58:38.301Z,68.23
2018-06-13T11:59:38.779Z,68.23
2018-06-13T12:00:39.251Z,68.21
2018-06-13T12:01:39.739Z,68.13
2018-06-13T12:02:40.199Z,68.11
2018-06-13T12:03:40.675Z,68.05
2018-06-13T12:04:41.149Z,68.00
2018-06-13T12:05:41.625Z,67.95
2018-06-13T12:06:42.100Z,67.96
2018-06-13T12:07:42.776Z,67.93
2018-06-13T12:08:43.046Z,67.94
2018-06-13T12:09:43.519Z,67.89
2018-06-13T12:10:43.994Z,67.86
2018-06-13T12:11:44.469Z,67.81
2018-06-13T12:12:44.942Z,67.76
2018-06-13T12:13:45.416Z,67.74
2018-06-13T12:14:45.890Z,67.72
2018-06-13T12:15:46.363Z,67.67
2018-06-13T12:16:46.838Z,67.67
2018-06-13T12:17:47.308Z,67.62
2018-06-13T12:18:47.786Z,67.57
2018-06-13T12:19:48.254Z,67.52
2018-06-13T12:20:48.725Z,67.47
2018-06-13T12:21:49.200Z,67.45
2018-06-13T12:22:49.670Z,67.40
2018-06-13T12:23:50.142Z,67.37
2018-06-13T12:24:50.617Z,67.32
2018-06-13T12:25:51.089Z,67.27
2018-06-13T12:26:51.558Z,67.25
2018-06-13T12:27:52.041Z,67.23
2018-06-13T12:28:52.501Z,67.17
2018-06-13T12:29:52.972Z,67.18
2018-06-13T12:30:53.442Z,67.13
2018-06-13T12:31:53.917Z,67.10
2018-06-13T12:32:54.385Z,67.03
2018-06-13T12:33:54.858Z,67.00
2018-06-13T12:34:55.331Z,66.98
2018-06-13T12:35:55.806Z,66.93
2018-06-13T12:36:56.273Z,66.91
2018-06-13T12:37:56.745Z,66.85
2018-06-13T12:38:57.222Z,66.80
2018-06-13T12:39:57.690Z,66.78
2018-06-13T12:40:58.161Z,66.67
2018-06-13T12:41:58.634Z,66.68
2018-06-13T12:42:59.309Z,66.60
2018-06-13T12:43:59.581Z,66.57
2018-06-13T12:45:00.056Z,66.52
2018-06-13T12:46:00.527Z,66.50
2018-06-13T12:47:01.001Z,66.47
2018-06-13T12:48:01.478Z,66.45
2018-06-13T12:49:01.947Z,66.37
2018-06-13T12:50:02.423Z,66.38
2018-06-13T12:51:02.895Z,66.33
2018-06-13T12:52:03.373Z,66.30
2018-06-13T12:53:03.844Z,66.22
2018-06-13T12:54:04.320Z,66.20
2018-06-13T12:55:04.797Z,66.14
2018-06-13T12:56:05.268Z,66.12
2018-06-13T12:57:05.743Z,66.10
2018-06-13T12:58:06.369Z,66.07
2018-06-13T12:59:06.695Z,66.02
2018-06-13T13:00:07.173Z,65.94
2018-06-13T13:01:07.644Z,65.83
2018-06-13T13:02:08.119Z,65.78